sensor_id;sensor_type;location;lat;lon;timestamp;P1;durP1;ratioP1;P2;durP2;ratioP2
8349;SDS011;60699;48.946;8.412;2023-03-03T00:00:32;28.65;;;17.27;;
8349;SDS011;60699;48.946;8.412;2023-03-03T00:03:00;32.88;;;19.13;;
8349;SDS011;60699;48.946;8.412;2023-03-03T00:05:30;37.65;;;20.00;;
8349;SDS011;60699;48.946;8.412;2023-03-03T00:07:58;31.00;;;16.30;;
8349;SDS011;60699;48.946;8.412;2023-03-03T00:10:26;29.40;;;17.40;;
8349;SDS011;60699;48.946;8.412;2023-03-03T00:12:53;28.80;;;16.17;;
8349;SDS011;60699;48.946;8.412;2023-03-03T00:15:21;29.17;;;17.17;;
8349;SDS011;60699;48.946;8.412;2023-03-03T00:17:49;34.13;;;18.08;;
8349;SDS011;60699;48.946;8.412;2023-03-03T00:20:25;41.45;;;18.33;;
8349;SDS011;60699;48.946;8.412;2023-03-03T00:22:53;29.33;;;17.88;;
8349;SDS011;60699;48.946;8.412;2023-03-03T00:25:23;37.17;;;18.90;;
8349;SDS011;60699;48.946;8.412;2023-03-03T00:27:55;32.17;;;17.42;;
8349;SDS011;60699;48.946;8.412;2023-03-03T00:30:22;36.13;;;18.73;;
8349;SDS011;60699;48.946;8.412;2023-03-03T00:32:50;33.13;;;17.40;;
8349;SDS011;60699;48.946;8.412;2023-03-03T00:35:20;37.42;;;19.33;;
8349;SDS011;60699;48.946;8.412;2023-03-03T00:37:49;44.72;;;18.73;;
8349;SDS011;60699;48.946;8.412;2023-03-03T00:40:21;41.83;;;19.88;;
8349;SDS011;60699;48.946;8.412;2023-03-03T00:42:49;36.80;;;19.63;;
8349;SDS011;60699;48.946;8.412;2023-03-03T00:45:20;35.90;;;17.58;;
8349;SDS011;60699;48.946;8.412;2023-03-03T00:47:49;34.50;;;18.13;;
8349;SDS011;60699;48.946;8.412;2023-03-03T00:50:20;40.35;;;19.40;;
8349;SDS011;60699;48.946;8.412;2023-03-03T00:52:53;39.60;;;17.88;;
8349;SDS011;60699;48.946;8.412;2023-03-03T00:55:21;35.08;;;16.85;;
8349;SDS011;60699;48.946;8.412;2023-03-03T00:57:48;31.08;;;16.92;;
8349;SDS011;60699;48.946;8.412;2023-03-03T01:00:15;40.53;;;17.27;;
8349;SDS011;60699;48.946;8.412;2023-03-03T01:02:44;25.65;;;16.20;;
8349;SDS011;60699;48.946;8.412;2023-03-03T01:05:12;30.45;;;17.38;;
8349;SDS011;60699;48.946;8.412;2023-03-03T01:07:39;28.85;;;15.68;;
8349;SDS011;60699;48.946;8.412;2023-03-03T01:10:07;31.77;;;16.38;;
8349;SDS011;60699;48.946;8.412;2023-03-03T01:12:34;30.27;;;19.45;;
8349;SDS011;60699;48.946;8.412;2023-03-03T01:15:03;33.53;;;15.55;;
8349;SDS011;60699;48.946;8.412;2023-03-03T01:17:30;28.88;;;14.77;;
8349;SDS011;60699;48.946;8.412;2023-03-03T01:19:59;35.90;;;16.88;;
8349;SDS011;60699;48.946;8.412;2023-03-03T01:22:26;31.30;;;16.65;;
8349;SDS011;60699;48.946;8.412;2023-03-03T01:24:53;25.10;;;14.50;;
8349;SDS011;60699;48.946;8.412;2023-03-03T01:27:20;31.67;;;17.60;;
8349;SDS011;60699;48.946;8.412;2023-03-03T01:29:47;28.83;;;16.02;;
8349;SDS011;60699;48.946;8.412;2023-03-03T01:32:15;33.80;;;16.38;;
8349;SDS011;60699;48.946;8.412;2023-03-03T01:34:42;28.48;;;16.02;;
8349;SDS011;60699;48.946;8.412;2023-03-03T01:37:10;33.05;;;15.60;;
8349;SDS011;60699;48.946;8.412;2023-03-03T01:39:37;26.48;;;16.23;;
8349;SDS011;60699;48.946;8.412;2023-03-03T01:42:04;26.48;;;15.43;;
8349;SDS011;60699;48.946;8.412;2023-03-03T01:44:32;25.58;;;15.07;;
8349;SDS011;60699;48.946;8.412;2023-03-03T01:46:59;23.40;;;14.45;;
8349;SDS011;60699;48.946;8.412;2023-03-03T01:49:30;27.67;;;15.30;;
8349;SDS011;60699;48.946;8.412;2023-03-03T01:52:00;31.13;;;17.20;;
8349;SDS011;60699;48.946;8.412;2023-03-03T01:54:33;30.90;;;16.10;;
8349;SDS011;60699;48.946;8.412;2023-03-03T01:57:03;27.80;;;16.02;;
8349;SDS011;60699;48.946;8.412;2023-03-03T01:59:32;25.30;;;15.13;;
8349;SDS011;60699;48.946;8.412;2023-03-03T02:02:00;25.92;;;14.80;;
8349;SDS011;60699;48.946;8.412;2023-03-03T02:04:27;26.88;;;16.70;;
8349;SDS011;60699;48.946;8.412;2023-03-03T02:06:55;33.20;;;14.75;;
8349;SDS011;60699;48.946;8.412;2023-03-03T02:09:25;32.53;;;17.83;;
8349;SDS011;60699;48.946;8.412;2023-03-03T02:11:57;30.08;;;16.33;;
8349;SDS011;60699;48.946;8.412;2023-03-03T02:14:25;28.30;;;15.98;;
8349;SDS011;60699;48.946;8.412;2023-03-03T02:16:52;30.23;;;14.90;;
8349;SDS011;60699;48.946;8.412;2023-03-03T02:19:20;36.67;;;15.50;;
8349;SDS011;60699;48.946;8.412;2023-03-03T02:21:50;33.08;;;16.48;;
8349;SDS011;60699;48.946;8.412;2023-03-03T02:24:20;27.48;;;14.48;;
8349;SDS011;60699;48.946;8.412;2023-03-03T02:26:50;31.70;;;16.23;;
8349;SDS011;60699;48.946;8.412;2023-03-03T02:29:17;26.75;;;15.38;;
8349;SDS011;60699;48.946;8.412;2023-03-03T02:31:44;27.88;;;16.65;;
8349;SDS011;60699;48.946;8.412;2023-03-03T02:34:11;22.50;;;14.82;;
8349;SDS011;60699;48.946;8.412;2023-03-03T02:36:38;32.55;;;15.95;;
8349;SDS011;60699;48.946;8.412;2023-03-03T02:39:06;31.00;;;19.23;;
8349;SDS011;60699;48.946;8.412;2023-03-03T02:41:34;34.78;;;15.52;;
8349;SDS011;60699;48.946;8.412;2023-03-03T02:44:05;28.05;;;14.93;;
8349;SDS011;60699;48.946;8.412;2023-03-03T02:46:33;25.27;;;14.35;;
8349;SDS011;60699;48.946;8.412;2023-03-03T02:49:00;29.90;;;14.95;;
8349;SDS011;60699;48.946;8.412;2023-03-03T02:51:27;25.70;;;14.75;;
8349;SDS011;60699;48.946;8.412;2023-03-03T02:53:54;34.92;;;16.17;;
8349;SDS011;60699;48.946;8.412;2023-03-03T02:56:22;27.10;;;16.13;;
8349;SDS011;60699;48.946;8.412;2023-03-03T02:58:49;28.10;;;13.48;;
8349;SDS011;60699;48.946;8.412;2023-03-03T03:01:18;33.30;;;15.30;;
8349;SDS011;60699;48.946;8.412;2023-03-03T03:03:45;23.85;;;14.35;;
8349;SDS011;60699;48.946;8.412;2023-03-03T03:06:12;25.98;;;14.70;;
8349;SDS011;60699;48.946;8.412;2023-03-03T03:08:39;32.28;;;14.70;;
8349;SDS011;60699;48.946;8.412;2023-03-03T03:11:06;26.33;;;16.13;;
8349;SDS011;60699;48.946;8.412;2023-03-03T03:13:33;23.90;;;15.45;;
8349;SDS011;60699;48.946;8.412;2023-03-03T03:16:01;35.17;;;15.55;;
8349;SDS011;60699;48.946;8.412;2023-03-03T03:18:29;33.17;;;17.20;;
8349;SDS011;60699;48.946;8.412;2023-03-03T03:20:56;26.40;;;16.27;;
8349;SDS011;60699;48.946;8.412;2023-03-03T03:23:23;22.55;;;15.10;;
8349;SDS011;60699;48.946;8.412;2023-03-03T03:25:50;29.50;;;15.32;;
8349;SDS011;60699;48.946;8.412;2023-03-03T03:28:17;28.98;;;14.40;;
8349;SDS011;60699;48.946;8.412;2023-03-03T03:30:44;33.30;;;15.48;;
8349;SDS011;60699;48.946;8.412;2023-03-03T03:33:12;21.40;;;13.68;;
8349;SDS011;60699;48.946;8.412;2023-03-03T03:35:40;27.13;;;14.95;;
8349;SDS011;60699;48.946;8.412;2023-03-03T03:38:09;27.92;;;14.43;;
8349;SDS011;60699;48.946;8.412;2023-03-03T03:40:36;33.45;;;16.30;;
8349;SDS011;60699;48.946;8.412;2023-03-03T03:43:04;38.53;;;16.33;;
8349;SDS011;60699;48.946;8.412;2023-03-03T03:45:31;28.45;;;14.32;;
8349;SDS011;60699;48.946;8.412;2023-03-03T03:47:58;27.90;;;14.20;;
8349;SDS011;60699;48.946;8.412;2023-03-03T03:50:25;26.88;;;12.98;;
8349;SDS011;60699;48.946;8.412;2023-03-03T03:52:53;28.40;;;15.20;;
8349;SDS011;60699;48.946;8.412;2023-03-03T03:55:20;24.88;;;14.73;;
8349;SDS011;60699;48.946;8.412;2023-03-03T03:57:47;24.48;;;14.05;;
8349;SDS011;60699;48.946;8.412;2023-03-03T04:00:15;31.08;;;13.85;;
8349;SDS011;60699;48.946;8.412;2023-03-03T04:02:42;21.25;;;13.38;;
8349;SDS011;60699;48.946;8.412;2023-03-03T04:05:09;27.13;;;15.77;;
8349;SDS011;60699;48.946;8.412;2023-03-03T04:07:36;23.67;;;13.25;;
8349;SDS011;60699;48.946;8.412;2023-03-03T04:10:05;29.05;;;14.15;;
8349;SDS011;60699;48.946;8.412;2023-03-03T04:12:32;25.15;;;15.38;;
8349;SDS011;60699;48.946;8.412;2023-03-03T04:15:02;23.33;;;13.35;;
8349;SDS011;60699;48.946;8.412;2023-03-03T04:17:30;28.48;;;14.13;;
8349;SDS011;60699;48.946;8.412;2023-03-03T04:19:57;31.33;;;14.02;;
8349;SDS011;60699;48.946;8.412;2023-03-03T04:22:24;20.98;;;14.15;;
8349;SDS011;60699;48.946;8.412;2023-03-03T04:24:51;22.52;;;12.95;;
8349;SDS011;60699;48.946;8.412;2023-03-03T04:27:19;24.25;;;12.55;;
8349;SDS011;60699;48.946;8.412;2023-03-03T04:29:46;28.15;;;14.30;;
8349;SDS011;60699;48.946;8.412;2023-03-03T04:32:13;24.55;;;13.88;;
8349;SDS011;60699;48.946;8.412;2023-03-03T04:34:42;24.75;;;13.73;;
8349;SDS011;60699;48.946;8.412;2023-03-03T04:37:09;25.33;;;13.63;;
8349;SDS011;60699;48.946;8.412;2023-03-03T04:39:37;27.95;;;14.82;;
8349;SDS011;60699;48.946;8.412;2023-03-03T04:42:04;22.50;;;14.80;;
8349;SDS011;60699;48.946;8.412;2023-03-03T04:44:32;26.02;;;14.48;;
8349;SDS011;60699;48.946;8.412;2023-03-03T04:46:59;26.08;;;14.25;;
8349;SDS011;60699;48.946;8.412;2023-03-03T04:49:26;30.50;;;13.35;;
8349;SDS011;60699;48.946;8.412;2023-03-03T04:51:53;28.25;;;13.80;;
8349;SDS011;60699;48.946;8.412;2023-03-03T04:54:20;25.88;;;13.70;;
8349;SDS011;60699;48.946;8.412;2023-03-03T04:56:47;26.50;;;14.50;;
8349;SDS011;60699;48.946;8.412;2023-03-03T04:59:15;26.50;;;12.05;;
8349;SDS011;60699;48.946;8.412;2023-03-03T05:01:43;24.35;;;13.07;;
8349;SDS011;60699;48.946;8.412;2023-03-03T05:04:11;26.45;;;14.45;;
8349;SDS011;60699;48.946;8.412;2023-03-03T05:06:38;29.10;;;14.63;;
8349;SDS011;60699;48.946;8.412;2023-03-03T05:09:05;24.17;;;14.18;;
8349;SDS011;60699;48.946;8.412;2023-03-03T05:11:33;29.17;;;13.75;;
8349;SDS011;60699;48.946;8.412;2023-03-03T05:14:00;31.63;;;15.77;;
8349;SDS011;60699;48.946;8.412;2023-03-03T05:16:28;25.23;;;14.60;;
8349;SDS011;60699;48.946;8.412;2023-03-03T05:18:56;26.33;;;14.30;;
8349;SDS011;60699;48.946;8.412;2023-03-03T05:21:23;30.13;;;15.93;;
8349;SDS011;60699;48.946;8.412;2023-03-03T05:23:50;26.92;;;14.50;;
8349;SDS011;60699;48.946;8.412;2023-03-03T05:26:17;25.80;;;15.15;;
8349;SDS011;60699;48.946;8.412;2023-03-03T05:28:44;31.17;;;15.77;;
8349;SDS011;60699;48.946;8.412;2023-03-03T05:31:11;25.60;;;13.52;;
8349;SDS011;60699;48.946;8.412;2023-03-03T05:33:38;28.27;;;13.80;;
8349;SDS011;60699;48.946;8.412;2023-03-03T05:36:07;25.05;;;16.05;;
8349;SDS011;60699;48.946;8.412;2023-03-03T05:38:34;38.72;;;16.40;;
8349;SDS011;60699;48.946;8.412;2023-03-03T05:41:01;25.45;;;13.77;;
8349;SDS011;60699;48.946;8.412;2023-03-03T05:43:28;26.50;;;16.20;;
8349;SDS011;60699;48.946;8.412;2023-03-03T05:45:56;32.15;;;15.02;;
8349;SDS011;60699;48.946;8.412;2023-03-03T05:48:23;32.33;;;15.80;;
8349;SDS011;60699;48.946;8.412;2023-03-03T05:50:50;27.95;;;14.52;;
8349;SDS011;60699;48.946;8.412;2023-03-03T05:53:18;30.77;;;15.27;;
8349;SDS011;60699;48.946;8.412;2023-03-03T05:55:45;38.20;;;19.35;;
8349;SDS011;60699;48.946;8.412;2023-03-03T05:58:12;23.15;;;15.20;;
8349;SDS011;60699;48.946;8.412;2023-03-03T06:00:39;31.33;;;14.82;;
8349;SDS011;60699;48.946;8.412;2023-03-03T06:03:06;27.80;;;17.23;;
8349;SDS011;60699;48.946;8.412;2023-03-03T06:05:33;26.75;;;15.13;;
8349;SDS011;60699;48.946;8.412;2023-03-03T06:08:00;26.23;;;15.50;;
8349;SDS011;60699;48.946;8.412;2023-03-03T06:10:29;24.70;;;13.10;;
8349;SDS011;60699;48.946;8.412;2023-03-03T06:12:56;26.20;;;13.70;;
8349;SDS011;60699;48.946;8.412;2023-03-03T06:15:23;28.42;;;15.32;;
8349;SDS011;60699;48.946;8.412;2023-03-03T06:17:50;27.42;;;16.67;;
8349;SDS011;60699;48.946;8.412;2023-03-03T06:20:18;34.17;;;16.05;;
8349;SDS011;60699;48.946;8.412;2023-03-03T06:22:45;28.90;;;14.48;;
8349;SDS011;60699;48.946;8.412;2023-03-03T06:25:12;29.98;;;17.10;;
8349;SDS011;60699;48.946;8.412;2023-03-03T06:27:40;24.35;;;15.27;;
8349;SDS011;60699;48.946;8.412;2023-03-03T06:30:08;28.50;;;16.50;;
8349;SDS011;60699;48.946;8.412;2023-03-03T06:32:35;37.20;;;16.30;;
8349;SDS011;60699;48.946;8.412;2023-03-03T06:35:02;29.77;;;15.57;;
8349;SDS011;60699;48.946;8.412;2023-03-03T06:37:29;34.30;;;15.75;;
8349;SDS011;60699;48.946;8.412;2023-03-03T06:39:56;24.98;;;14.40;;
8349;SDS011;60699;48.946;8.412;2023-03-03T06:42:23;31.08;;;16.60;;
8349;SDS011;60699;48.946;8.412;2023-03-03T06:44:52;25.42;;;16.05;;
8349;SDS011;60699;48.946;8.412;2023-03-03T06:47:19;23.73;;;15.90;;
8349;SDS011;60699;48.946;8.412;2023-03-03T06:49:46;26.50;;;15.50;;
8349;SDS011;60699;48.946;8.412;2023-03-03T06:52:14;27.20;;;15.40;;
8349;SDS011;60699;48.946;8.412;2023-03-03T06:54:43;27.25;;;14.75;;
8349;SDS011;60699;48.946;8.412;2023-03-03T06:57:14;25.30;;;15.00;;
8349;SDS011;60699;48.946;8.412;2023-03-03T06:59:42;26.50;;;14.45;;
8349;SDS011;60699;48.946;8.412;2023-03-03T07:02:13;29.02;;;14.45;;
8349;SDS011;60699;48.946;8.412;2023-03-03T07:04:42;28.63;;;15.20;;
8349;SDS011;60699;48.946;8.412;2023-03-03T07:07:10;27.27;;;15.05;;
8349;SDS011;60699;48.946;8.412;2023-03-03T07:09:39;25.27;;;16.42;;
8349;SDS011;60699;48.946;8.412;2023-03-03T07:12:09;23.95;;;15.45;;
8349;SDS011;60699;48.946;8.412;2023-03-03T07:14:38;26.10;;;14.95;;
8349;SDS011;60699;48.946;8.412;2023-03-03T07:17:09;31.92;;;16.77;;
8349;SDS011;60699;48.946;8.412;2023-03-03T07:19:38;34.38;;;16.40;;
8349;SDS011;60699;48.946;8.412;2023-03-03T07:22:07;25.15;;;15.02;;
8349;SDS011;60699;48.946;8.412;2023-03-03T07:24:38;31.30;;;16.85;;
8349;SDS011;60699;48.946;8.412;2023-03-03T07:27:08;30.38;;;16.25;;
8349;SDS011;60699;48.946;8.412;2023-03-03T07:29:37;26.30;;;15.95;;
8349;SDS011;60699;48.946;8.412;2023-03-03T07:32:11;27.38;;;16.60;;
8349;SDS011;60699;48.946;8.412;2023-03-03T07:34:43;28.92;;;15.15;;
8349;SDS011;60699;48.946;8.412;2023-03-03T07:37:12;34.83;;;17.52;;
8349;SDS011;60699;48.946;8.412;2023-03-03T07:39:42;30.30;;;16.15;;
8349;SDS011;60699;48.946;8.412;2023-03-03T07:42:14;28.05;;;15.60;;
8349;SDS011;60699;48.946;8.412;2023-03-03T07:44:43;29.65;;;17.15;;
8349;SDS011;60699;48.946;8.412;2023-03-03T07:47:12;29.55;;;15.70;;
8349;SDS011;60699;48.946;8.412;2023-03-03T07:49:42;29.52;;;15.90;;
8349;SDS011;60699;48.946;8.412;2023-03-03T07:52:17;35.22;;;17.08;;
8349;SDS011;60699;48.946;8.412;2023-03-03T07:54:46;28.17;;;15.80;;
8349;SDS011;60699;48.946;8.412;2023-03-03T07:57:14;31.67;;;15.82;;
8349;SDS011;60699;48.946;8.412;2023-03-03T07:59:45;37.95;;;19.00;;
8349;SDS011;60699;48.946;8.412;2023-03-03T08:02:19;34.28;;;17.70;;
8349;SDS011;60699;48.946;8.412;2023-03-03T08:04:55;31.25;;;18.52;;
8349;SDS011;60699;48.946;8.412;2023-03-03T08:07:24;33.15;;;18.98;;
8349;SDS011;60699;48.946;8.412;2023-03-03T08:09:55;31.40;;;18.02;;
8349;SDS011;60699;48.946;8.412;2023-03-03T08:12:38;31.73;;;17.67;;
8349;SDS011;60699;48.946;8.412;2023-03-03T08:17:57;31.15;;;17.80;;
8349;SDS011;60699;48.946;8.412;2023-03-03T08:20:40;27.33;;;17.77;;
8349;SDS011;60699;48.946;8.412;2023-03-03T08:23:08;27.27;;;15.50;;
8349;SDS011;60699;48.946;8.412;2023-03-03T08:25:36;27.25;;;17.17;;
8349;SDS011;60699;48.946;8.412;2023-03-03T08:28:03;31.75;;;18.55;;
8349;SDS011;60699;48.946;8.412;2023-03-03T08:30:31;29.50;;;18.00;;
8349;SDS011;60699;48.946;8.412;2023-03-03T08:32:58;34.22;;;18.02;;
8349;SDS011;60699;48.946;8.412;2023-03-03T08:35:25;27.50;;;15.10;;
8349;SDS011;60699;48.946;8.412;2023-03-03T08:37:54;31.67;;;17.30;;
8349;SDS011;60699;48.946;8.412;2023-03-03T08:40:21;35.10;;;17.25;;
8349;SDS011;60699;48.946;8.412;2023-03-03T08:42:48;32.40;;;16.40;;
8349;SDS011;60699;48.946;8.412;2023-03-03T08:45:15;31.90;;;17.85;;
8349;SDS011;60699;48.946;8.412;2023-03-03T08:47:43;37.47;;;18.83;;
8349;SDS011;60699;48.946;8.412;2023-03-03T08:50:10;35.75;;;18.70;;
8349;SDS011;60699;48.946;8.412;2023-03-03T08:52:37;32.30;;;18.55;;
8349;SDS011;60699;48.946;8.412;2023-03-03T08:55:06;38.55;;;19.33;;
8349;SDS011;60699;48.946;8.412;2023-03-03T08:57:33;35.28;;;17.83;;
8349;SDS011;60699;48.946;8.412;2023-03-03T09:00:00;36.85;;;20.35;;
8349;SDS011;60699;48.946;8.412;2023-03-03T09:02:27;36.75;;;18.85;;
8349;SDS011;60699;48.946;8.412;2023-03-03T09:04:54;35.22;;;17.50;;
8349;SDS011;60699;48.946;8.412;2023-03-03T09:07:21;36.28;;;17.95;;
8349;SDS011;60699;48.946;8.412;2023-03-03T09:09:48;37.05;;;19.00;;
8349;SDS011;60699;48.946;8.412;2023-03-03T09:12:18;37.08;;;19.20;;
8349;SDS011;60699;48.946;8.412;2023-03-03T09:14:45;32.25;;;17.23;;
8349;SDS011;60699;48.946;8.412;2023-03-03T09:17:18;27.95;;;17.02;;
8349;SDS011;60699;48.946;8.412;2023-03-03T09:19:49;27.10;;;16.63;;
8349;SDS011;60699;48.946;8.412;2023-03-03T09:22:18;32.13;;;16.23;;
8349;SDS011;60699;48.946;8.412;2023-03-03T09:24:45;28.70;;;17.95;;
8349;SDS011;60699;48.946;8.412;2023-03-03T09:27:14;32.58;;;17.42;;
8349;SDS011;60699;48.946;8.412;2023-03-03T09:29:45;30.27;;;17.80;;
8349;SDS011;60699;48.946;8.412;2023-03-03T09:32:19;32.92;;;19.58;;
8349;SDS011;60699;48.946;8.412;2023-03-03T09:34:47;35.10;;;19.45;;
8349;SDS011;60699;48.946;8.412;2023-03-03T09:37:16;35.20;;;19.40;;
8349;SDS011;60699;48.946;8.412;2023-03-03T09:39:45;38.60;;;19.63;;
8349;SDS011;60699;48.946;8.412;2023-03-03T09:42:20;33.83;;;18.77;;
8349;SDS011;60699;48.946;8.412;2023-03-03T09:47:40;32.90;;;18.23;;
8349;SDS011;60699;48.946;8.412;2023-03-03T09:50:12;39.40;;;18.70;;
8349;SDS011;60699;48.946;8.412;2023-03-03T09:52:45;36.10;;;19.33;;
8349;SDS011;60699;48.946;8.412;2023-03-03T09:55:18;30.50;;;16.20;;
8349;SDS011;60699;48.946;8.412;2023-03-03T09:57:55;31.45;;;17.83;;
8349;SDS011;60699;48.946;8.412;2023-03-03T10:00:30;31.77;;;18.10;;
8349;SDS011;60699;48.946;8.412;2023-03-03T10:03:27;35.15;;;17.73;;
8349;SDS011;60699;48.946;8.412;2023-03-03T10:05:59;28.13;;;15.15;;
8349;SDS011;60699;48.946;8.412;2023-03-03T10:08:32;29.45;;;18.00;;
8349;SDS011;60699;48.946;8.412;2023-03-03T10:11:04;31.30;;;19.55;;
8349;SDS011;60699;48.946;8.412;2023-03-03T10:13:46;37.35;;;17.70;;
8349;SDS011;60699;48.946;8.412;2023-03-03T10:19:06;30.58;;;17.63;;
8349;SDS011;60699;48.946;8.412;2023-03-03T10:21:39;26.33;;;16.90;;
8349;SDS011;60699;48.946;8.412;2023-03-03T10:24:11;37.05;;;18.40;;
8349;SDS011;60699;48.946;8.412;2023-03-03T10:26:47;37.83;;;20.77;;
8349;SDS011;60699;48.946;8.412;2023-03-03T10:29:20;41.85;;;18.73;;
8349;SDS011;60699;48.946;8.412;2023-03-03T10:31:56;33.40;;;20.35;;
8349;SDS011;60699;48.946;8.412;2023-03-03T10:34:35;36.80;;;21.27;;
8349;SDS011;60699;48.946;8.412;2023-03-03T10:37:05;39.20;;;20.10;;
8349;SDS011;60699;48.946;8.412;2023-03-03T10:39:52;37.28;;;21.58;;
8349;SDS011;60699;48.946;8.412;2023-03-03T10:42:28;38.15;;;20.38;;
8349;SDS011;60699;48.946;8.412;2023-03-03T10:45:06;35.83;;;19.90;;
8349;SDS011;60699;48.946;8.412;2023-03-03T10:47:43;34.30;;;19.48;;
8349;SDS011;60699;48.946;8.412;2023-03-03T10:50:15;35.83;;;20.08;;
8349;SDS011;60699;48.946;8.412;2023-03-03T10:52:48;35.78;;;21.02;;
8349;SDS011;60699;48.946;8.412;2023-03-03T10:58:09;30.25;;;18.67;;
8349;SDS011;60699;48.946;8.412;2023-03-03T11:00:42;35.13;;;19.55;;
8349;SDS011;60699;48.946;8.412;2023-03-03T11:05:55;48.85;;;19.88;;
8349;SDS011;60699;48.946;8.412;2023-03-03T11:08:26;31.63;;;17.58;;
8349;SDS011;60699;48.946;8.412;2023-03-03T11:10:57;35.53;;;20.05;;
8349;SDS011;60699;48.946;8.412;2023-03-03T11:13:27;32.90;;;18.77;;
8349;SDS011;60699;48.946;8.412;2023-03-03T11:18:48;33.95;;;19.73;;
8349;SDS011;60699;48.946;8.412;2023-03-03T11:21:20;41.20;;;19.05;;
8349;SDS011;60699;48.946;8.412;2023-03-03T11:23:55;39.50;;;20.95;;
8349;SDS011;60699;48.946;8.412;2023-03-03T11:26:28;38.00;;;18.65;;
8349;SDS011;60699;48.946;8.412;2023-03-03T11:29:05;31.60;;;20.60;;
8349;SDS011;60699;48.946;8.412;2023-03-03T11:31:37;36.38;;;19.63;;
8349;SDS011;60699;48.946;8.412;2023-03-03T11:34:11;38.22;;;18.30;;
8349;SDS011;60699;48.946;8.412;2023-03-03T11:36:44;28.70;;;19.65;;
8349;SDS011;60699;48.946;8.412;2023-03-03T11:39:15;32.90;;;17.70;;
8349;SDS011;60699;48.946;8.412;2023-03-03T11:41:47;33.22;;;19.08;;
8349;SDS011;60699;48.946;8.412;2023-03-03T11:44:17;28.65;;;17.90;;
8349;SDS011;60699;48.946;8.412;2023-03-03T11:46:47;41.83;;;19.67;;
8349;SDS011;60699;48.946;8.412;2023-03-03T11:49:17;29.77;;;17.10;;
8349;SDS011;60699;48.946;8.412;2023-03-03T11:51:49;28.25;;;19.42;;
8349;SDS011;60699;48.946;8.412;2023-03-03T11:54:21;35.38;;;19.00;;
8349;SDS011;60699;48.946;8.412;2023-03-03T11:56:49;33.45;;;16.00;;
8349;SDS011;60699;48.946;8.412;2023-03-03T11:59:20;30.85;;;17.80;;
8349;SDS011;60699;48.946;8.412;2023-03-03T12:01:53;22.83;;;15.40;;
8349;SDS011;60699;48.946;8.412;2023-03-03T12:04:23;24.92;;;16.98;;
8349;SDS011;60699;48.946;8.412;2023-03-03T12:07:00;28.13;;;17.83;;
8349;SDS011;60699;48.946;8.412;2023-03-03T12:09:32;32.10;;;18.38;;
8349;SDS011;60699;48.946;8.412;2023-03-03T12:12:04;30.95;;;17.20;;
8349;SDS011;60699;48.946;8.412;2023-03-03T12:14:37;30.35;;;17.75;;
8349;SDS011;60699;48.946;8.412;2023-03-03T12:17:06;35.15;;;18.27;;
8349;SDS011;60699;48.946;8.412;2023-03-03T12:19:39;24.83;;;17.65;;
8349;SDS011;60699;48.946;8.412;2023-03-03T12:22:18;25.65;;;16.45;;
8349;SDS011;60699;48.946;8.412;2023-03-03T12:27:35;28.75;;;16.00;;
8349;SDS011;60699;48.946;8.412;2023-03-03T12:30:05;28.02;;;17.15;;
8349;SDS011;60699;48.946;8.412;2023-03-03T12:32:45;31.58;;;17.27;;
8349;SDS011;60699;48.946;8.412;2023-03-03T12:35:16;32.03;;;17.25;;
8349;SDS011;60699;48.946;8.412;2023-03-03T12:37:51;32.40;;;18.95;;
8349;SDS011;60699;48.946;8.412;2023-03-03T12:40:20;27.70;;;16.95;;
8349;SDS011;60699;48.946;8.412;2023-03-03T12:43:02;30.55;;;18.13;;
8349;SDS011;60699;48.946;8.412;2023-03-03T12:45:34;25.70;;;17.38;;
8349;SDS011;60699;48.946;8.412;2023-03-03T12:48:05;24.25;;;15.70;;
8349;SDS011;60699;48.946;8.412;2023-03-03T12:50:35;29.98;;;17.10;;
8349;SDS011;60699;48.946;8.412;2023-03-03T12:53:11;38.88;;;19.95;;
8349;SDS011;60699;48.946;8.412;2023-03-03T12:55:44;31.45;;;18.55;;
8349;SDS011;60699;48.946;8.412;2023-03-03T12:58:14;25.88;;;18.27;;
8349;SDS011;60699;48.946;8.412;2023-03-03T13:00:48;43.17;;;19.95;;
8349;SDS011;60699;48.946;8.412;2023-03-03T13:03:20;27.13;;;17.20;;
8349;SDS011;60699;48.946;8.412;2023-03-03T13:05:50;33.58;;;18.10;;
8349;SDS011;60699;48.946;8.412;2023-03-03T13:08:28;32.25;;;18.70;;
8349;SDS011;60699;48.946;8.412;2023-03-03T13:11:00;31.80;;;17.73;;
8349;SDS011;60699;48.946;8.412;2023-03-03T13:13:30;36.35;;;17.65;;
8349;SDS011;60699;48.946;8.412;2023-03-03T13:16:01;28.50;;;17.40;;
8349;SDS011;60699;48.946;8.412;2023-03-03T13:18:33;32.17;;;17.60;;
8349;SDS011;60699;48.946;8.412;2023-03-03T13:21:06;36.72;;;18.00;;
8349;SDS011;60699;48.946;8.412;2023-03-03T13:23:38;27.88;;;16.50;;
8349;SDS011;60699;48.946;8.412;2023-03-03T13:26:09;31.25;;;18.75;;
8349;SDS011;60699;48.946;8.412;2023-03-03T13:28:37;24.33;;;17.30;;
8349;SDS011;60699;48.946;8.412;2023-03-03T13:31:07;28.13;;;16.52;;
8349;SDS011;60699;48.946;8.412;2023-03-03T13:33:36;26.42;;;16.50;;
8349;SDS011;60699;48.946;8.412;2023-03-03T13:36:05;26.35;;;16.00;;
8349;SDS011;60699;48.946;8.412;2023-03-03T13:38:34;29.00;;;18.35;;
8349;SDS011;60699;48.946;8.412;2023-03-03T13:41:05;34.30;;;17.38;;
8349;SDS011;60699;48.946;8.412;2023-03-03T13:43:37;25.73;;;16.85;;
8349;SDS011;60699;48.946;8.412;2023-03-03T13:46:07;31.17;;;17.08;;
8349;SDS011;60699;48.946;8.412;2023-03-03T13:48:44;28.45;;;16.98;;
8349;SDS011;60699;48.946;8.412;2023-03-03T13:51:16;31.63;;;18.08;;
8349;SDS011;60699;48.946;8.412;2023-03-03T13:53:45;30.35;;;17.40;;
8349;SDS011;60699;48.946;8.412;2023-03-03T13:56:20;27.70;;;16.80;;
8349;SDS011;60699;48.946;8.412;2023-03-03T13:58:51;29.20;;;16.98;;
8349;SDS011;60699;48.946;8.412;2023-03-03T14:01:26;35.13;;;17.50;;
8349;SDS011;60699;48.946;8.412;2023-03-03T14:03:58;28.67;;;19.98;;
8349;SDS011;60699;48.946;8.412;2023-03-03T14:06:28;28.35;;;17.33;;
8349;SDS011;60699;48.946;8.412;2023-03-03T14:09:15;31.88;;;18.63;;
8349;SDS011;60699;48.946;8.412;2023-03-03T14:11:47;26.85;;;17.83;;
8349;SDS011;60699;48.946;8.412;2023-03-03T14:14:19;35.47;;;19.58;;
8349;SDS011;60699;48.946;8.412;2023-03-03T14:16:49;31.08;;;18.38;;
8349;SDS011;60699;48.946;8.412;2023-03-03T14:19:19;28.73;;;17.02;;
8349;SDS011;60699;48.946;8.412;2023-03-03T14:21:52;31.60;;;17.85;;
8349;SDS011;60699;48.946;8.412;2023-03-03T14:24:23;30.40;;;19.30;;
8349;SDS011;60699;48.946;8.412;2023-03-03T14:26:53;30.17;;;17.70;;
8349;SDS011;60699;48.946;8.412;2023-03-03T14:29:23;34.10;;;19.10;;
8349;SDS011;60699;48.946;8.412;2023-03-03T14:31:55;29.45;;;18.63;;
8349;SDS011;60699;48.946;8.412;2023-03-03T14:34:29;31.55;;;17.90;;
8349;SDS011;60699;48.946;8.412;2023-03-03T14:36:57;27.83;;;17.02;;
8349;SDS011;60699;48.946;8.412;2023-03-03T14:39:27;29.90;;;18.25;;
8349;SDS011;60699;48.946;8.412;2023-03-03T14:41:57;32.65;;;18.42;;
8349;SDS011;60699;48.946;8.412;2023-03-03T14:44:26;32.72;;;19.58;;
8349;SDS011;60699;48.946;8.412;2023-03-03T14:47:00;35.63;;;20.20;;
8349;SDS011;60699;48.946;8.412;2023-03-03T14:49:30;28.55;;;17.83;;
8349;SDS011;60699;48.946;8.412;2023-03-03T14:52:02;42.67;;;18.20;;
8349;SDS011;60699;48.946;8.412;2023-03-03T14:54:32;35.58;;;19.73;;
8349;SDS011;60699;48.946;8.412;2023-03-03T14:57:04;34.15;;;17.88;;
8349;SDS011;60699;48.946;8.412;2023-03-03T14:59:33;31.90;;;18.50;;
8349;SDS011;60699;48.946;8.412;2023-03-03T15:02:23;33.58;;;19.38;;
8349;SDS011;60699;48.946;8.412;2023-03-03T15:05:07;28.33;;;17.65;;
8349;SDS011;60699;48.946;8.412;2023-03-03T15:07:37;37.30;;;19.05;;